Terminal Aerodrome Forecast
Issued by NWS

Home | Current Version | Previous Version | Text Only | Print | Product List | Glossary On
Versions: 1 2 3 4 5 6 7 8 9 10 11 12 13 14 15
000
FTUS42 KTAE 142300
TAFVLD
TAF
KVLD 142320Z 1500/1524 18005KT P6SM SCT040
     FM151000 00000KT 5SM BR BKN003
     FM151400 16003KT P6SM SCT030
     FM152000 19006KT P6SM VCTS SCT040CB BKN250=

USA.gov is the U.S. government's official web portal to all federal, state and local government web resources and services.